Data for 11/15/2009

Time Sea-Level Adjusted Pressure Absolute Pressure Temperature Relative Humidity Dew Point   
(mb) (inHg) (mb) (inHg) (C) (F) (%) (C) (F)
00:05 1021 30.15 850 25.1 -8.5 16.6 86 -10.4 13.2
00:10 1021 30.15 850 25.1 -8.7 16.4 86 -10.5 13
00:15 1021 30.15 850 25.1 -8.7 16.3 89 -10.2 13.6
00:20 1021 30.15 850 25.1 -8.5 16.8 84 -10.7 12.7
00:25 1021 30.15 850 25.1 -8.4 16.8 80 -11.3 11.6
00:30 1021 30.15 850 25.1 -9 15.7 81 -11.8 10.8
00:35 1021 30.15 850 25.1 -9.2 15.4 80 -12.1 10.2
00:40 1021 30.15 850 25.1 -9.3 15.2 81 -12.1 10.3
00:45 1021 30.15 850 25.1 -9.7 14.6 83 -12 10.5
00:50 1021 30.15 850 25.1 -10.2 13.6 82 -12.7 9.1
00:55 1021 30.15 850 25.1 -9.3 15.3 76 -12.8 9
01:00 1021 30.15 850 25.1 -9.5 15 78 -12.7 9.1
01:05 1021 30.15 850 25.1 -10.3 13.4 80 -13.1 8.5
01:10 1021 30.15 850 25.1 -10.6 12.9 86 -12.5 9.5
01:15 1021 30.15 850 25.1 -10 14.1 85 -12.1 10.3
01:20 1021 30.15 850 25.1 -9.6 14.7 80 -12.4 9.7
01:25 1021 30.15 850 25.1 -10 14.1 81 -12.7 9.1
01:30 1021 30.15 850 25.1 -10.2 13.7 83 -12.6 9.3
01:35 1021 30.15 850 25.1 -10.1 13.8 85 -12.2 10
01:40 1021 30.15 850 25.1 -10.1 13.9 81 -12.7 9.1
01:45 1021 30.15 850 25.1 -10.1 13.8 80 -12.9 8.8
01:50 1021 30.15 850 25.1 -10.1 13.9 82 -12.5 9.4
01:55 1021 30.15 850 25.1 -9.9 14.3 79 -12.8 9
02:00 1021 30.15 850 25.1 -10.1 13.9 82 -12.6 9.4
02:05 1021 30.15 850 25.1 -10.1 13.8 80 -12.9 8.8
02:10 1021 30.15 850 25.1 -10.2 13.7 82 -12.7 9.2
02:15 1021 30.15 850 25.1 -10.2 13.7 82 -12.7 9.2
02:20 1021 30.15 850 25.1 -10 14 81 -12.6 9.3
02:25 1021 30.15 850 25.1 -9.8 14.4 75 -13.4 7.9
02:30 1021 30.15 850 25.1 -9.8 14.4 78 -13 8.6
02:35 1021 30.15 850 25.1 -9.9 14.1 76 -13.4 7.8
02:40 1021 30.15 850 25.1 -10.4 13.3 79 -13.3 8.1
02:45 1021 30.15 850 25.1 -10.3 13.6 78 -13.3 8
02:50 1021 30.15 850 25.1 -10.1 13.7 80 -12.9 8.8
02:55 1021 30.15 850 25.1 -10.1 13.9 77 -13.4 7.9
03:00 1021 30.15 850 25.1 -9.7 14.5 75 -13.3 8
03:05 1021 30.15 850 25.1 -9.6 14.8 74 -13.3 8
03:10 1021 30.15 850 25.1 -10.3 13.5 77 -13.6 7.5
03:15 1021 30.15 850 25.1 -10.5 13.1 76 -13.9 6.9
03:20 1021 30.15 850 25.1 -10.2 13.6 75 -13.9 6.9
03:25 1021 30.15 850 25.1 -10.4 13.2 76 -13.9 6.9
03:30 1021 30.15 850 25.1 -10.8 12.5 77 -14.1 6.6
03:35 1021 30.15 850 25.1 -10.8 12.6 81 -13.4 7.9
03:40 1021 30.15 850 25.1 -10.8 12.5 82 -13.4 7.9
03:45 1021 30.15 850 25.1 -10.7 12.7 80 -13.5 7.6
03:50 1021 30.15 850 25.1 -10.5 13 79 -13.4 7.8
03:55 1021 30.15 851 25.13 -10.2 13.7 78 -13.3 8.1
04:00 1021 30.15 851 25.13 -10.2 13.7 78 -13.4 7.9
04:05 1021 30.15 851 25.13 -10 14 76 -13.6 7.6
04:10 1021 30.15 851 25.13 -10.2 13.7 76 -13.6 7.5
04:15 1022 30.18 851 25.13 -10.6 13 84 -12.8 9
04:20 1022 30.18 851 25.13 -10.6 13 78 -13.8 7.2
04:25 1022 30.18 851 25.13 -9.8 14.4 75 -13.4 7.9
04:30 1022 30.18 851 25.13 -9.7 14.5 73 -13.7 7.3
04:35 1022 30.18 851 25.13 -10.2 13.7 72 -14.3 6.3
04:40 1022 30.18 851 25.13 -11 12.2 74 -14.9 5.3
04:45 1022 30.18 851 25.13 -12 10.3 79 -15 5
04:50 1022 30.18 851 25.13 -11.6 11.2 78 -14.6 5.6
04:55 1022 30.18 851 25.13 -11 12.2 77 -14.3 6.3
05:00 1022 30.18 851 25.13 -10.6 13 77 -13.9 7
05:05 1022 30.18 851 25.13 -11 12.2 78 -14.1 6.6
05:10 1022 30.18 851 25.13 -10.9 12.4 78 -14.1 6.6
05:15 1022 30.18 851 25.13 -11 12.2 77 -14.4 6.1
05:20 1022 30.18 851 25.13 -10.6 12.9 74 -14.4 6.1
05:25 1022 30.18 851 25.13 -11.1 12 76 -14.5 5.9
05:30 1022 30.18 851 25.13 -11.2 11.9 79 -14.1 6.6
05:35 1022 30.18 851 25.13 -11 12.1 76 -14.4 6.1
05:40 1022 30.18 851 25.13 -11.1 12 79 -14 6.8
05:45 1022 30.18 851 25.13 -10.8 12.5 82 -13.4 7.9
05:50 1022 30.18 851 25.13 -10.1 13.7 76 -13.5 7.6
05:55 1022 30.18 851 25.13 -10.1 13.7 76 -13.5 7.6
06:00 1022 30.18 851 25.13 -10.7 12.8 79 -13.7 7.4
06:05 1022 30.18 851 25.13 -10.7 12.7 75 -14.4 6.1
06:10 1022 30.18 851 25.13 -10.8 12.5 74 -14.6 5.8
06:15 1022 30.18 851 25.13 -11 12.2 74 -14.7 5.6
06:20 1022 30.18 851 25.13 -11.2 11.8 75 -14.8 5.3
06:25 1022 30.18 851 25.13 -11 12.2 76 -14.5 5.9
06:30 1022 30.18 851 25.13 -11.1 12 75 -14.8 5.4
06:35 1022 30.18 852 25.16 -11.5 11.4 78 -14.6 5.6
06:40 1022 30.18 852 25.16 -11.4 11.6 74 -15.1 4.9
06:45 1022 30.18 852 25.16 -11 12.1 73 -14.9 5.1
06:50 1022 30.18 852 25.16 -10.8 12.6 72 -14.8 5.3
06:55 1022 30.18 852 25.16 -11 12.1 72 -15.1 4.9
07:00 1023 30.21 852 25.16 -11.3 11.7 74 -15.1 4.8
07:05 1023 30.21 852 25.16 -11.1 12 74 -15 5.1
07:10 1023 30.21 852 25.16 -10.9 12.4 74 -14.7 5.5
07:15 1023 30.21 852 25.16 -10.6 12.8 72 -14.8 5.4
07:20 1023 30.21 852 25.16 -11.2 11.8 75 -14.7 5.5
07:25 1023 30.21 852 25.16 -11.2 11.9 73 -15.1 4.9
07:30 1023 30.21 852 25.16 -11 12.2 74 -14.7 5.6
07:35 1023 30.21 852 25.16 -10.8 12.5 75 -14.4 6.1
07:40 1023 30.21 852 25.16 -10.9 12.4 74 -14.7 5.5
07:45 1023 30.21 852 25.16 -11.1 12 76 -14.5 5.8
07:50 1023 30.21 852 25.16 -11.2 11.9 79 -14.1 6.6
07:55 1023 30.21 852 25.16 -11.1 12 75 -14.7 5.6
08:00 1023 30.21 852 25.16 -11.3 11.6 76 -14.7 5.6
08:05 1023 30.21 852 25.16 -11.4 11.4 77 -14.7 5.5
08:10 1023 30.21 852 25.16 -11.4 11.5 75 -15 5
08:15 1023 30.21 852 25.16 -11.3 11.7 75 -14.9 5.3
08:20 1023 30.21 852 25.16 -10.8 12.5 74 -14.6 5.6
08:25 1023 30.21 852 25.16 -10.3 13.5 71 -14.6 5.8
08:30 1023 30.21 852 25.16 -9.7 14.6 70 -14.1 6.5
08:35 1023 30.21 852 25.16 -9.4 15 70 -13.9 7.1
08:40 1023 30.21 852 25.16 -9 15.8 68 -13.9 7.1
08:45 1023 30.21 852 25.16 -9.9 14.2 74 -13.7 7.3
08:50 1023 30.21 852 25.16 -10.3 13.5 75 -14 6.8
08:55 1023 30.21 852 25.16 -10.2 13.7 74 -14 6.8
09:00 1023 30.21 852 25.16 -10 13.9 74 -13.9 7
09:05 1023 30.21 852 25.16 -9.7 14.5 72 -13.9 7.1
09:10 1023 30.21 852 25.16 -9.4 15 73 -13.5 7.7
09:15 1023 30.21 852 25.16 -9.6 14.8 74 -13.3 8
09:20 1023 30.21 852 25.16 -9.4 15.1 71 -13.7 7.3
09:25 1023 30.21 852 25.16 -8.7 16.4 70 -13.3 8.1
09:30 1023 30.21 852 25.16 -8 17.6 66 -13.3 8.1
09:35 1023 30.21 852 25.16 -7.4 18.6 67 -12.6 9.4
09:40 1023 30.21 852 25.16 -6.7 19.9 64 -12.4 9.6
09:45 1023 30.21 853 25.19 -6.6 20.1 64 -12.3 9.9
09:50 1023 30.21 853 25.19 -6.1 21.1 61 -12.5 9.5
09:55 1023 30.21 853 25.19 -4.7 23.5 57 -12 10.5
10:00 1024 30.24 853 25.19 -4.3 24.2 61 -10.7 12.7
10:05 1024 30.24 853 25.19 -5.6 22 66 -10.9 12.4
10:10 1024 30.24 853 25.19 -6.1 21 66 -11.4 11.5
10:15 1024 30.24 853 25.19 -6.1 21 67 -11.3 11.6
10:20 1024 30.24 853 25.19 -6 21.1 68 -11 12.2
10:25 1024 30.24 853 25.19 -5.5 22 62 -11.7 10.9
10:30 1024 30.24 853 25.19 -5.5 22 60 -12.2 10
10:35 1024 30.24 853 25.19 -4.9 23.2 56 -12.4 9.6
10:40 1024 30.24 853 25.19 -4.2 24.5 55 -11.8 10.7
10:45 1024 30.24 853 25.19 -3.5 25.7 55 -11.4 11.6
10:50 1024 30.24 853 25.19 -2.9 26.8 50 -12 10.4
10:55 1024 30.24 853 25.19 -2.9 26.8 53 -11.2 11.8
11:00 1024 30.24 853 25.19 -2.7 27.1 53 -11.1 12
11:05 1024 30.24 853 25.19 -2.5 27.5 49 -11.8 10.8
11:10 1024 30.24 853 25.19 -2.1 28.2 48 -11.8 10.7
11:15 1023 30.21 853 25.19 -2.2 28.1 49 -11.4 11.5
11:20 1023 30.21 853 25.19 -2.3 27.8 48 -11.8 10.7
11:25 1023 30.21 853 25.19 -1.8 28.8 46 -12 10.4
11:30 1023 30.21 853 25.19 -1.3 29.7 45 -11.8 10.7
11:35 1023 30.21 853 25.19 -1.1 30 54 -9.2 15.4
11:40 1023 30.21 852 25.16 -1.5 29.3 53 -9.9 14.2
11:45 1023 30.21 852 25.16 -0.9 30.3 51 -10 14.1
11:50 1023 30.21 852 25.16 -0.7 30.7 53 -9.1 15.5
11:55 1023 30.21 852 25.16 -1.7 28.9 56 -9.4 15
12:00 1023 30.21 852 25.16 -2 28.3 60 -8.8 16.1
12:05 1023 30.21 852 25.16 -2.9 26.7 62 -9.3 15.3
12:10 1023 30.21 852 25.16 -2.9 26.8 59 -9.7 14.5
12:15 1023 30.21 852 25.16 -2 28.4 57 -9.5 14.9
12:20 1023 30.21 852 25.16 -2.1 28.3 57 -9.5 14.9
12:25 1023 30.21 852 25.16 -2.7 27.1 59 -9.6 14.7
12:30 1023 30.21 852 25.16 -3 26.6 60 -9.6 14.7
12:35 1023 30.21 852 25.16 -2 28.4 56 -9.6 14.7
12:40 1023 30.21 852 25.16 -2.1 28.2 54 -10.3 13.4
12:45 1023 30.21 852 25.16 -1.7 28.9 53 -10.2 13.7
12:50 1023 30.21 852 25.16 -1.6 29.2 54 -9.6 14.6
12:55 1023 30.21 852 25.16 -1.7 29 53 -10.1 13.9
13:00 1023 30.21 852 25.16 -1.5 29.4 53 -9.8 14.4
13:05 1023 30.21 852 25.16 -1 30.1 54 -9.2 15.5
13:10 1023 30.21 852 25.16 -2.3 27.8 60 -9 15.8
13:15 1023 30.21 852 25.16 -2.3 27.8 59 -9.2 15.4
13:20 1023 30.21 852 25.16 -1.7 29 57 -9.1 15.7
13:25 1023 30.21 852 25.16 -1.6 29.1 56 -9.3 15.3
13:30 1023 30.21 852 25.16 -1.6 29.1 55 -9.5 14.9
13:35 1023 30.21 852 25.16 -1.1 30 49 -10.4 13.3
13:40 1023 30.21 852 25.16 -0.5 31.1 43 -11.7 10.9
13:45 1023 30.21 852 25.16 -0.6 31 44 -11.5 11.4
13:50 1023 30.21 852 25.16 -0.1 31.8 43 -11.3 11.6
13:55 1023 30.21 852 25.16 -0.3 31.5 42 -11.6 11
14:00 1023 30.21 852 25.16 -0 32 51 -9 15.8
14:05 1023 30.21 853 25.19 -1.2 29.8 59 -8.1 17.4
14:10 1023 30.21 853 25.19 -1.5 29.4 56 -9.1 15.7
14:15 1023 30.21 853 25.19 -2 28.4 62 -8.2 17.2
14:20 1023 30.21 853 25.19 -2.5 27.5 61 -8.9 15.9
14:25 1023 30.21 852 25.16 -2.4 27.7 61 -8.9 16.1
14:30 1023 30.21 852 25.16 -1.9 28.6 59 -8.8 16.2
14:35 1023 30.21 852 25.16 -1.5 29.3 59 -8.4 16.8
14:40 1023 30.21 852 25.16 -1.1 30.1 58 -8.4 16.9
14:45 1023 30.21 852 25.16 -1.6 29.2 58 -8.7 16.3
14:50 1023 30.21 852 25.16 -1.6 29.2 58 -8.7 16.3
14:55 1023 30.21 852 25.16 -1.4 29.4 59 -8.4 16.9
15:00 1023 30.21 852 25.16 -1.6 29.1 59 -8.5 16.7
15:05 1023 30.21 852 25.16 -1.5 29.3 60 -8.3 17
15:10 1023 30.21 852 25.16 -1.1 30.1 58 -8.4 16.9
15:15 1023 30.21 852 25.16 -0.7 30.8 56 -8.4 16.8
15:20 1023 30.21 852 25.16 -0.3 31.5 53 -8.8 16.2
15:25 1023 30.21 853 25.19 -0.5 31.2 54 -8.8 16.2
15:30 1023 30.21 853 25.19 -1 30.1 56 -8.6 16.4
15:35 1023 30.21 853 25.19 -1.7 29 56 -9.3 15.2
15:40 1023 30.21 853 25.19 -1.8 28.7 57 -9.3 15.2
15:45 1023 30.21 853 25.19 -1.7 28.9 58 -9 15.8
15:50 1023 30.21 853 25.19 -1.8 28.9 57 -9.2 15.4
15:55 1023 30.21 853 25.19 -1.9 28.7 56 -9.5 14.9
16:00 1023 30.21 853 25.19 -2.4 27.7 60 -9 15.7
16:05 1023 30.21 853 25.19 -2.8 27 59 -9.6 14.6
16:10 1023 30.21 853 25.19 -2.6 27.4 55 -10.3 13.4
16:15 1023 30.21 853 25.19 -1.9 28.5 54 -10 14
16:20 1023 30.21 853 25.19 -2.5 27.5 57 -9.9 14.2
16:25 1023 30.21 853 25.19 -3.1 26.3 58 -10.2 13.6
16:30 1023 30.21 853 25.19 -3.1 26.4 59 -9.9 14.1
16:35 1023 30.21 853 25.19 -3.6 25.6 63 -9.5 14.8
16:40 1023 30.21 853 25.19 -3.7 25.4 66 -9.2 15.5
16:45 1023 30.21 853 25.19 -4 24.9 71 -8.5 16.6
16:50 1024 30.24 853 25.19 -4.4 24 74 -8.4 17
16:55 1023 30.21 853 25.19 -4.9 23.2 73 -9.1 15.7
17:00 1023 30.21 853 25.19 -5 23 73 -9.2 15.4
17:05 1023 30.21 853 25.19 -5.1 22.9 72 -9.3 15.2
17:10 1023 30.21 853 25.19 -5.1 22.9 73 -9.1 15.6
17:15 1023 30.21 853 25.19 -4.9 23.2 74 -8.8 16.1
17:20 1023 30.21 853 25.19 -4.7 23.6 72 -9.1 15.7
17:25 1024 30.24 853 25.19 -4.7 23.5 72 -9 15.8
17:30 1024 30.24 853 25.19 -4.9 23.2 74 -8.8 16.1
17:35 1024 30.24 853 25.19 -5.2 22.6 75 -8.9 16
17:40 1024 30.24 853 25.19 -5.4 22.3 78 -8.7 16.4
17:45 1024 30.24 853 25.19 -5.7 21.7 79 -8.9 16
17:50 1024 30.24 853 25.19 -6.1 21.1 80 -9.1 15.7
17:55 1024 30.24 853 25.19 -6.2 20.8 80 -9.2 15.5
18:00 1024 30.24 853 25.19 -6 21.2 77 -9.4 15.1
18:05 1024 30.24 853 25.19 -5.7 21.7 76 -9.3 15.3
18:10 1024 30.24 853 25.19 -5.6 21.9 77 -9 15.8
18:15 1024 30.24 853 25.19 -5.8 21.6 77 -9.2 15.5
18:20 1024 30.24 853 25.19 -5.8 21.6 76 -9.3 15.2
18:25 1024 30.24 853 25.19 -5.4 22.3 75 -9.2 15.4
18:30 1024 30.24 853 25.19 -5.7 21.7 77 -9.1 15.6
18:35 1024 30.24 853 25.19 -5.8 21.6 77 -9.3 15.3
18:40 1024 30.24 853 25.19 -5.6 22 76 -9.1 15.6
18:45 1024 30.24 853 25.19 -5.7 21.7 81 -8.5 16.7
18:50 1024 30.24 853 25.19 -5.8 21.5 83 -8.2 17.2
18:55 1024 30.24 853 25.19 -5.6 21.8 82 -8.2 17.2
19:00 1024 30.24 853 25.19 -5.5 22.2 82 -8 17.5
19:05 1024 30.24 853 25.19 -5.1 22.8 80 -8 17.6
19:10 1024 30.24 853 25.19 -5.1 22.9 81 -7.9 17.7
19:15 1024 30.24 853 25.19 -5.1 22.9 80 -8 17.6
19:20 1024 30.24 853 25.19 -5.1 22.8 80 -8.1 17.5
19:25 1024 30.24 853 25.19 -5.5 22.1 82 -8.1 17.4
19:30 1024 30.24 853 25.19 -5.9 21.5 84 -8.2 17.2
19:35 1024 30.24 853 25.19 -6.1 21.1 84 -8.4 16.9
19:40 1024 30.24 853 25.19 -6.1 21 84 -8.5 16.8
19:45 1024 30.24 853 25.19 -6 21.1 83 -8.4 16.8
19:50 1024 30.24 853 25.19 -5.9 21.4 84 -8.2 17.3
19:55 1024 30.24 853 25.19 -5.5 22.1 80 -8.4 16.8
20:00 1024 30.24 853 25.19 -5.6 21.9 81 -8.3 17
20:05 1024 30.24 853 25.19 -5.3 22.4 79 -8.5 16.8
20:10 1024 30.24 853 25.19 -5.2 22.6 81 -8 17.6
20:15 1024 30.24 853 25.19 -5.2 22.7 82 -7.8 18
20:20 1024 30.24 853 25.19 -4.8 23.3 78 -8 17.5
20:25 1024 30.24 853 25.19 -4.9 23.2 78 -8.2 17.3
20:30 1024 30.24 853 25.19 -5.6 22 83 -8.1 17.5
20:35 1024 30.24 853 25.19 -6.1 21 85 -8.3 17
20:40 1024 30.24 853 25.19 -6.5 20.4 85 -8.6 16.6
20:45 1024 30.24 853 25.19 -6.5 20.3 85 -8.7 16.3
20:50 1024 30.24 853 25.19 -6.6 20.1 85 -8.8 16.2
20:55 1024 30.24 853 25.19 -6.4 20.4 83 -8.9 16
21:00 1024 30.24 853 25.19 -5.9 21.3 80 -8.9 16
21:05 1024 30.24 853 25.19 -5.8 21.6 80 -8.8 16.2
21:10 1024 30.24 853 25.19 -5.8 21.6 82 -8.3 17
21:15 1024 30.24 853 25.19 -5.8 21.5 83 -8.3 17.1
21:20 1024 30.24 853 25.19 -5.8 21.5 83 -8.2 17.2
21:25 1024 30.24 853 25.19 -5.8 21.6 83 -8.2 17.2
21:30 1024 30.24 853 25.19 -5.5 22.2 82 -8.1 17.4
21:35 1024 30.24 853 25.19 -5.4 22.2 81 -8.2 17.3
21:40 1024 30.24 853 25.19 -5.5 22.2 81 -8.3 17.1
21:45 1024 30.24 853 25.19 -5.6 21.9 80 -8.6 16.5
21:50 1024 30.24 853 25.19 -5.3 22.4 79 -8.5 16.8
21:55 1024 30.24 853 25.19 -5 22.9 78 -8.2 17.2
22:00 1024 30.24 853 25.19 -4.8 23.3 78 -8.1 17.5
22:05 1024 30.24 853 25.19 -4.9 23.2 79 -8.1 17.5
22:10 1024 30.24 853 25.19 -4.9 23.2 79 -8 17.5
22:15 1024 30.24 853 25.19 -5.1 22.9 80 -8 17.5
22:20 1024 30.24 853 25.19 -5.2 22.6 80 -8.1 17.4
22:25 1024 30.24 853 25.19 -5.2 22.6 80 -8.2 17.2
22:30 1024 30.24 853 25.19 -5.2 22.7 80 -8.1 17.4
22:35 1024 30.24 853 25.19 -5.1 22.9 80 -8.1 17.4
22:40 1024 30.24 853 25.19 -5.2 22.6 80 -8.1 17.4
22:45 1024 30.24 853 25.19 -5 22.9 79 -8.1 17.4
22:50 1024 30.24 853 25.19 -5.3 22.4 81 -8.1 17.3
22:55 1024 30.24 853 25.19 -5.5 22.2 80 -8.3 17
23:00 1024 30.24 853 25.19 -5.3 22.5 80 -8.2 17.2
23:05 1024 30.24 853 25.19 -5.4 22.3 80 -8.3 17
23:10 1024 30.24 853 25.19 -5.9 21.4 82 -8.5 16.8
23:15 1024 30.24 853 25.19 -5.8 21.6 82 -8.4 16.9
23:20 1024 30.24 853 25.19 -5.6 22 81 -8.3 17
23:25 1024 30.24 853 25.19 -5.7 21.8 81 -8.5 16.7
23:30 1024 30.24 853 25.19 -5.7 21.8 81 -8.5 16.7
23:35 1024 30.24 853 25.19 -5.7 21.8 81 -8.4 17
23:40 1024 30.24 853 25.19 -5.8 21.5 82 -8.5 16.8
23:45 1024 30.24 853 25.19 -6.1 21 83 -8.5 16.7
23:50 1024 30.24 853 25.19 -5.9 21.4 82 -8.5 16.7
23:55 1024 30.24 853 25.19 -5.6 21.9 81 -8.3 17
24:00 1024 30.24 853 25.19 -5.6 21.9 81 -8.3 17.1